Time;durP1;ratioP1;P1;durP2;ratioP2;P2;SDS_P1;SDS_P2;PMS_P1;PMS_P2;Temp;Humidity;BMP_temperature;BMP_pressure;BME280_temperature;BME280_humidity;BME280_pressure;Samples;Min_cycle;Max_cycle;Signal;HPM_P1;HPM_P2
2022/12/15 00:38:44;;;;;;;29.58;15.23;;;;;;;;;;4996779;28;20420;-70
2022/12/15 00:41:12;;;;;;;25.05;14.65;;;;;;;;;;4988128;28;20517;-70
2022/12/15 00:43:38;;;;;;;33.90;15.38;;;;;;;;;;5010326;28;20874;-70
2022/12/15 00:48:50;;;;;;;28.60;14.80;;;;;;;;;;5016108;28;20486;-71
2022/12/15 00:51:16;;;;;;;25.90;14.95;;;;;;;;;;5013292;28;20446;-70
2022/12/15 01:21:11;;;;;;;155.45;25.25;;;;;;;;;;5012534;28;20452;-70
2022/12/15 01:23:37;;;;;;;29.67;15.80;;;;;;;;;;5008724;28;20421;-71
2022/12/15 01:26:04;;;;;;;25.48;14.35;;;;;;;;;;5003352;28;20507;-71
2022/12/15 01:28:30;;;;;;;30.30;15.02;;;;;;;;;;4998086;28;20506;-71
2022/12/15 01:30:56;;;;;;;29.05;14.82;;;;;;;;;;5013737;28;20522;-70
2022/12/15 01:33:22;;;;;;;29.60;14.90;;;;;;;;;;5014160;28;20426;-71
2022/12/15 01:36:01;;;;;;;25.20;14.02;;;;;;;;;;5006830;28;20847;-71
2022/12/15 01:38:27;;;;;;;38.63;17.10;;;;;;;;;;5004826;28;20479;-70
2022/12/15 01:40:55;;;;;;;27.08;14.32;;;;;;;;;;4995018;28;20424;-70
2022/12/15 01:43:23;;;;;;;24.98;12.93;;;;;;;;;;5004128;28;20918;-70
2022/12/15 01:46:05;;;;;;;26.50;12.75;;;;;;;;;;5010456;28;20818;-71
2022/12/15 01:48:36;;;;;;;23.48;11.65;;;;;;;;;;4997975;28;20448;-71
2022/12/15 01:51:02;;;;;;;21.03;11.73;;;;;;;;;;5011406;28;20445;-70
2022/12/15 01:53:32;;;;;;;21.55;11.30;;;;;;;;;;4993969;28;20825;-71
2022/12/15 01:55:58;;;;;;;21.83;11.23;;;;;;;;;;5013983;28;20506;-70
2022/12/15 01:58:25;;;;;;;21.52;11.35;;;;;;;;;;5011879;28;20431;-70
2022/12/15 02:00:51;;;;;;;22.08;11.50;;;;;;;;;;5011732;28;20516;-70
2022/12/15 02:03:17;;;;;;;21.05;10.35;;;;;;;;;;4991152;28;20920;-71
2022/12/15 02:05:43;;;;;;;22.73;10.88;;;;;;;;;;4994771;28;20421;-70
2022/12/15 02:08:10;;;;;;;18.60;10.25;;;;;;;;;;5000895;28;20526;-70
2022/12/15 02:10:55;;;;;;;18.70;10.50;;;;;;;;;;5008527;28;21000;-71
2022/12/15 02:13:39;;;;;;;20.65;10.65;;;;;;;;;;5011064;28;20419;-70
2022/12/15 02:16:10;;;;;;;18.75;10.50;;;;;;;;;;4998288;28;20424;-70
2022/12/15 02:18:36;;;;;;;20.55;10.75;;;;;;;;;;5011630;28;20616;-70
2022/12/15 02:21:19;;;;;;;18.95;10.50;;;;;;;;;;5013527;28;20492;-70
2022/12/15 02:23:57;;;;;;;21.10;10.18;;;;;;;;;;5012082;28;20434;-70
2022/12/15 02:26:26;;;;;;;20.33;10.80;;;;;;;;;;5010333;28;20460;-70
2022/12/15 02:28:59;;;;;;;22.08;11.00;;;;;;;;;;4997903;28;20897;-71
2022/12/15 02:31:48;;;;;;;24.15;11.20;;;;;;;;;;5006333;28;20484;-70
2022/12/15 02:34:18;;;;;;;22.05;11.30;;;;;;;;;;5005594;28;20435;-69
2022/12/15 02:36:47;;;;;;;19.83;10.30;;;;;;;;;;5011903;28;20897;-70
2022/12/15 02:39:13;;;;;;;18.60;10.30;;;;;;;;;;5003613;28;20427;-70
2022/12/15 02:41:43;;;;;;;20.15;9.77;;;;;;;;;;5013883;28;20430;-70
2022/12/15 02:44:11;;;;;;;17.40;9.07;;;;;;;;;;5005765;28;20427;-70
2022/12/15 02:46:37;;;;;;;19.75;9.07;;;;;;;;;;5013211;28;20846;-70
2022/12/15 02:49:26;;;;;;;15.90;8.33;;;;;;;;;;5002377;28;20757;-70
2022/12/15 02:52:02;;;;;;;15.57;8.00;;;;;;;;;;4996044;28;20483;-70
2022/12/15 02:54:28;;;;;;;14.95;7.78;;;;;;;;;;4995023;28;20430;-70
2022/12/15 02:57:05;;;;;;;15.40;7.88;;;;;;;;;;5000335;28;20935;-70
2022/12/15 02:59:42;;;;;;;15.38;7.53;;;;;;;;;;5006492;28;20510;-70
2022/12/15 03:02:09;;;;;;;15.88;7.72;;;;;;;;;;5009833;28;20441;-71
2022/12/15 03:04:36;;;;;;;13.70;7.40;;;;;;;;;;5007926;28;21159;-70
2022/12/15 03:07:03;;;;;;;13.77;7.85;;;;;;;;;;4977317;28;20428;-70
2022/12/15 03:09:30;;;;;;;17.92;8.07;;;;;;;;;;5005746;28;20441;-70
2022/12/15 03:11:56;;;;;;;24.60;9.98;;;;;;;;;;4997274;28;20421;-70
2022/12/15 03:14:24;;;;;;;16.13;8.32;;;;;;;;;;4987744;28;20432;-70
2022/12/15 03:16:50;;;;;;;16.40;8.70;;;;;;;;;;4993954;28;20412;-71
2022/12/15 03:19:16;;;;;;;17.80;9.55;;;;;;;;;;5025341;28;20473;-70
2022/12/15 03:21:42;;;;;;;18.77;9.23;;;;;;;;;;5003584;28;20429;-71
2022/12/15 03:24:08;;;;;;;20.27;10.20;;;;;;;;;;5010774;28;20938;-70
2022/12/15 03:26:35;;;;;;;19.17;9.88;;;;;;;;;;5015976;28;20502;-70
2022/12/15 03:29:01;;;;;;;17.95;9.40;;;;;;;;;;5012266;28;20938;-71
2022/12/15 03:31:27;;;;;;;16.23;9.47;;;;;;;;;;4997340;28;20441;-70
2022/12/15 03:33:54;;;;;;;18.70;9.18;;;;;;;;;;5002254;28;20468;-70
2022/12/15 03:36:21;;;;;;;27.92;10.57;;;;;;;;;;4984544;28;20837;-70
2022/12/15 03:38:47;;;;;;;16.17;8.80;;;;;;;;;;5025341;28;20915;-70
2022/12/15 03:41:14;;;;;;;18.00;9.57;;;;;;;;;;5016806;28;20915;-70
2022/12/15 03:43:40;;;;;;;14.80;8.40;;;;;;;;;;5000640;28;20418;-70
2022/12/15 03:46:06;;;;;;;13.70;7.40;;;;;;;;;;5014745;28;20427;-70
2022/12/15 03:48:32;;;;;;;15.73;8.43;;;;;;;;;;5009559;28;20424;-70
2022/12/15 03:50:58;;;;;;;37.75;10.57;;;;;;;;;;5007224;28;20461;-70
2022/12/15 03:53:24;;;;;;;19.65;8.40;;;;;;;;;;5004066;28;20451;-70
2022/12/15 03:55:50;;;;;;;15.68;8.23;;;;;;;;;;4980427;28;20424;-71
2022/12/15 03:58:16;;;;;;;14.65;8.13;;;;;;;;;;5000454;28;20487;-70
2022/12/15 04:00:42;;;;;;;15.00;8.80;;;;;;;;;;5014430;28;20424;-71
2022/12/15 04:03:10;;;;;;;16.10;8.82;;;;;;;;;;5013957;28;20401;-70
2022/12/15 04:05:36;;;;;;;26.70;11.55;;;;;;;;;;4974171;28;20442;-70
2022/12/15 04:08:03;;;;;;;19.95;9.55;;;;;;;;;;5013774;28;20422;-70
2022/12/15 04:10:30;;;;;;;16.00;9.38;;;;;;;;;;5007903;28;20420;-70
2022/12/15 04:13:00;;;;;;;18.52;9.35;;;;;;;;;;4997028;28;20404;-71
2022/12/15 04:15:27;;;;;;;18.15;9.90;;;;;;;;;;4996693;28;20428;-70
2022/12/15 04:17:53;;;;;;;17.10;10.30;;;;;;;;;;5015079;28;20401;-70
2022/12/15 04:20:19;;;;;;;32.30;12.18;;;;;;;;;;4982946;28;20433;-70
2022/12/15 04:22:46;;;;;;;20.17;10.02;;;;;;;;;;4996829;28;20900;-69
2022/12/15 05:31:47;;;;;;;21.80;13.70;;;;;;;;;;4997042;28;20487;-71
2022/12/15 05:34:15;;;;;;;54.47;18.13;;;;;;;;;;4994709;28;20847;-70
2022/12/15 05:36:41;;;;;;;265.95;39.03;;;;;;;;;;4994783;28;20437;-71
2022/12/15 05:39:07;;;;;;;27.63;15.60;;;;;;;;;;4998754;28;20429;-71
2022/12/15 05:41:33;;;;;;;29.55;15.75;;;;;;;;;;5013169;28;20438;-70
2022/12/15 05:43:59;;;;;;;88.60;20.15;;;;;;;;;;4987274;28;20427;-70
2022/12/15 05:46:25;;;;;;;59.63;17.67;;;;;;;;;;4979308;28;20408;-71
2022/12/15 05:48:51;;;;;;;25.85;14.57;;;;;;;;;;5013025;28;20405;-71
2022/12/15 05:51:17;;;;;;;23.52;13.05;;;;;;;;;;5004219;28;20433;-71
2022/12/15 05:53:43;;;;;;;20.77;13.05;;;;;;;;;;5022046;28;20998;-71
2022/12/15 05:56:11;;;;;;;24.25;14.20;;;;;;;;;;4999774;28;20426;-70
2022/12/15 05:58:37;;;;;;;20.92;12.82;;;;;;;;;;5014648;28;20407;-70
2022/12/15 06:01:04;;;;;;;22.38;12.10;;;;;;;;;;4985631;28;20432;-70
2022/12/15 06:03:30;;;;;;;21.02;13.10;;;;;;;;;;4996468;28;20423;-70
2022/12/15 06:05:57;;;;;;;24.67;14.38;;;;;;;;;;5029248;28;20423;-70
2022/12/15 06:08:23;;;;;;;21.95;11.88;;;;;;;;;;5006312;28;20907;-70
2022/12/15 06:10:56;;;;;;;19.45;11.60;;;;;;;;;;5004841;28;20423;-70
2022/12/15 06:13:22;;;;;;;21.88;11.50;;;;;;;;;;5024918;28;21181;-71
2022/12/15 06:15:59;;;;;;;18.60;11.63;;;;;;;;;;5010312;28;20423;-70
2022/12/15 06:18:27;;;;;;;20.00;10.90;;;;;;;;;;5006372;28;20467;-70
2022/12/15 06:21:00;;;;;;;20.73;10.88;;;;;;;;;;4994146;28;20428;-71
2022/12/15 06:23:31;;;;;;;19.87;10.83;;;;;;;;;;5009847;28;20464;-70
2022/12/15 06:25:57;;;;;;;17.15;10.70;;;;;;;;;;4997601;28;20478;-70
2022/12/15 06:28:24;;;;;;;21.83;10.93;;;;;;;;;;5011773;28;20425;-70
2022/12/15 06:30:51;;;;;;;25.42;12.55;;;;;;;;;;5028809;28;20445;-70
2022/12/15 06:33:18;;;;;;;18.75;11.15;;;;;;;;;;5000600;28;20972;-70
2022/12/15 06:35:44;;;;;;;21.63;11.23;;;;;;;;;;4994764;28;20426;-70
2022/12/15 06:38:10;;;;;;;19.57;10.70;;;;;;;;;;5004327;28;20429;-71
2022/12/15 06:40:36;;;;;;;20.20;10.73;;;;;;;;;;5009341;28;20875;-69
2022/12/15 06:43:02;;;;;;;21.97;11.17;;;;;;;;;;4982685;28;20428;-71
2022/12/15 06:45:28;;;;;;;18.33;10.18;;;;;;;;;;4982634;28;20443;-70
2022/12/15 06:47:54;;;;;;;18.40;9.60;;;;;;;;;;4994123;28;20409;-70
2022/12/15 06:50:20;;;;;;;17.38;9.60;;;;;;;;;;4977591;28;20411;-70
2022/12/15 06:52:46;;;;;;;32.00;12.63;;;;;;;;;;4996312;28;20516;-71
2022/12/15 06:55:13;;;;;;;17.83;10.82;;;;;;;;;;5009238;28;20463;-71
2022/12/15 06:57:39;;;;;;;18.33;10.37;;;;;;;;;;5034419;28;20407;-71
2022/12/15 07:00:05;;;;;;;16.00;9.73;;;;;;;;;;5017936;28;20405;-70
2022/12/15 07:02:31;;;;;;;19.63;11.30;;;;;;;;;;4999788;28;20465;-70
2022/12/15 07:04:58;;;;;;;19.23;10.07;;;;;;;;;;4995996;28;20437;-71
2022/12/15 07:07:24;;;;;;;20.48;12.50;;;;;;;;;;4971403;28;20424;-71
2022/12/15 07:09:50;;;;;;;20.10;10.60;;;;;;;;;;5014774;28;20440;-71
2022/12/15 07:12:17;;;;;;;23.67;11.85;;;;;;;;;;5004844;28;20432;-71
2022/12/15 07:14:43;;;;;;;20.67;11.30;;;;;;;;;;4990298;28;20489;-71
2022/12/15 07:17:09;;;;;;;17.58;10.05;;;;;;;;;;5013494;28;20441;-70
2022/12/15 07:19:36;;;;;;;16.02;9.82;;;;;;;;;;5031034;28;20411;-71
2022/12/15 07:22:02;;;;;;;21.77;10.90;;;;;;;;;;5016739;28;20426;-71
2022/12/15 07:24:28;;;;;;;20.85;11.48;;;;;;;;;;4988542;28;20416;-70
2022/12/15 07:26:54;;;;;;;18.95;10.30;;;;;;;;;;5000567;28;20414;-70
2022/12/15 07:29:20;;;;;;;17.80;9.87;;;;;;;;;;5008458;28;20421;-71
2022/12/15 07:31:46;;;;;;;16.65;10.02;;;;;;;;;;4993254;28;20437;-71
2022/12/15 07:34:13;;;;;;;21.17;10.63;;;;;;;;;;4987729;28;20435;-71
2022/12/15 07:36:39;;;;;;;17.98;9.75;;;;;;;;;;5000109;28;20491;-70
2022/12/15 07:39:05;;;;;;;17.23;9.68;;;;;;;;;;4980675;28;20429;-71
2022/12/15 07:41:32;;;;;;;16.87;10.33;;;;;;;;;;4995557;28;20857;-71
2022/12/15 07:43:58;;;;;;;21.90;11.80;;;;;;;;;;4999973;28;20505;-71
2022/12/15 07:46:25;;;;;;;16.73;9.88;;;;;;;;;;4977278;28;20644;-71
2022/12/15 07:48:52;;;;;;;17.00;9.88;;;;;;;;;;5023969;28;20431;-71
2022/12/15 07:51:19;;;;;;;17.08;9.55;;;;;;;;;;5011680;28;20428;-71
2022/12/15 07:53:45;;;;;;;17.35;9.70;;;;;;;;;;4994306;28;20927;-71
2022/12/15 07:56:11;;;;;;;15.85;9.70;;;;;;;;;;4978414;28;20484;-71
2022/12/15 07:58:38;;;;;;;17.25;10.45;;;;;;;;;;4990549;28;20425;-72
2022/12/15 08:01:08;;;;;;;17.67;9.97;;;;;;;;;;4986005;28;20516;-69
2022/12/15 08:03:34;;;;;;;15.68;9.52;;;;;;;;;;4993587;28;20436;-70
2022/12/15 08:06:11;;;;;;;17.85;11.15;;;;;;;;;;4996586;28;20426;-71
2022/12/15 08:08:38;;;;;;;19.35;11.65;;;;;;;;;;4999541;28;20422;-71
2022/12/15 08:11:08;;;;;;;16.83;10.48;;;;;;;;;;4998761;28;20837;-71
2022/12/15 08:13:34;;;;;;;17.10;10.85;;;;;;;;;;5006265;28;20428;-71
2022/12/15 08:16:00;;;;;;;18.20;10.43;;;;;;;;;;4996572;28;20946;-70
2022/12/15 08:18:27;;;;;;;16.08;10.18;;;;;;;;;;4990570;28;20432;-69
2022/12/15 08:20:53;;;;;;;31.50;11.70;;;;;;;;;;5004372;28;20442;-71
2022/12/15 08:23:19;;;;;;;18.27;9.93;;;;;;;;;;4982274;28;20430;-70
2022/12/15 08:25:45;;;;;;;21.83;10.10;;;;;;;;;;5007711;28;20465;-71
2022/12/15 08:28:11;;;;;;;18.38;10.32;;;;;;;;;;5005603;28;20425;-71
2022/12/15 08:30:37;;;;;;;18.58;10.07;;;;;;;;;;4996130;28;20425;-71
2022/12/15 08:33:03;;;;;;;16.83;10.60;;;;;;;;;;5001420;28;20475;-71
2022/12/15 08:35:29;;;;;;;18.98;10.43;;;;;;;;;;4995275;28;20772;-71
2022/12/15 08:37:55;;;;;;;17.85;11.02;;;;;;;;;;4998294;28;20529;-71
2022/12/15 08:40:21;;;;;;;19.08;11.65;;;;;;;;;;4983850;28;20429;-70
2022/12/15 08:42:47;;;;;;;17.95;10.25;;;;;;;;;;4998412;28;20428;-71
2022/12/15 08:45:13;;;;;;;19.33;10.40;;;;;;;;;;4993358;28;20425;-70
2022/12/15 08:47:40;;;;;;;18.63;11.20;;;;;;;;;;5000102;28;20516;-71
2022/12/15 08:50:07;;;;;;;18.48;10.60;;;;;;;;;;4990980;28;20430;-71
2022/12/15 08:52:34;;;;;;;15.32;9.57;;;;;;;;;;5003406;28;21289;-71
2022/12/15 08:55:00;;;;;;;18.10;9.77;;;;;;;;;;4994803;28;20432;-71
2022/12/15 08:57:26;;;;;;;17.77;10.38;;;;;;;;;;4992713;28;20929;-71
2022/12/15 08:59:52;;;;;;;20.43;10.97;;;;;;;;;;5008856;28;20905;-71
2022/12/15 09:02:18;;;;;;;17.15;10.20;;;;;;;;;;5009381;28;20468;-70
2022/12/15 09:04:44;;;;;;;19.92;10.50;;;;;;;;;;5010746;28;20421;-71
2022/12/15 09:07:10;;;;;;;19.58;11.95;;;;;;;;;;5008990;28;20478;-71
2022/12/15 09:09:37;;;;;;;19.05;10.15;;;;;;;;;;4978358;28;20475;-71
2022/12/15 09:12:03;;;;;;;17.52;10.75;;;;;;;;;;5000749;28;20916;-71
2022/12/15 09:14:29;;;;;;;17.40;10.20;;;;;;;;;;5003207;28;20428;-71
2022/12/15 09:16:55;;;;;;;19.60;10.25;;;;;;;;;;5003748;28;20928;-71
2022/12/15 09:19:21;;;;;;;16.27;10.30;;;;;;;;;;5007896;28;20440;-71
2022/12/15 09:21:48;;;;;;;18.60;11.00;;;;;;;;;;5010183;28;20464;-72
2022/12/15 09:24:14;;;;;;;21.05;11.40;;;;;;;;;;5011934;28;20413;-72
2022/12/15 09:26:41;;;;;;;21.23;11.23;;;;;;;;;;5011761;28;20436;-71
2022/12/15 09:29:10;;;;;;;22.27;10.90;;;;;;;;;;5000443;28;20468;-71
2022/12/15 09:31:37;;;;;;;23.63;11.55;;;;;;;;;;4994610;28;20523;-72
2022/12/15 09:34:03;;;;;;;16.27;10.70;;;;;;;;;;5011727;28;20419;-72
2022/12/15 09:36:48;;;;;;;18.73;11.20;;;;;;;;;;5122073;27;1970105;-70
2022/12/15 09:39:15;;;;;;;17.40;10.63;;;;;;;;;;5131183;27;20444;-70
2022/12/15 09:41:48;;;;;;;19.25;11.43;;;;;;;;;;5138306;27;20419;-71
2022/12/15 09:44:16;;;;;;;17.73;11.10;;;;;;;;;;5136123;27;20404;-71
2022/12/15 09:47:04;;;;;;;17.10;10.77;;;;;;;;;;5153093;27;20685;-70
2022/12/15 09:50:03;;;;;;;15.73;10.00;;;0.80;99.90;;;;;;5124293;27;20755;-70
2022/12/15 09:52:48;;;;;;;14.98;9.80;;;;;;;;;;5123285;27;20419;-71
2022/12/15 09:55:21;;;;;;;18.80;9.30;;;;;;;;;;5129800;27;20966;-69
2022/12/15 09:57:50;;;;;;;15.43;9.48;;;;;;;;;;5132067;27;20922;-70
2022/12/15 10:00:23;;;;;;;15.55;9.43;;;;;;;;;;5133067;27;20408;-70
2022/12/15 10:02:55;;;;;;;14.50;9.52;;;;;;;;;;5142315;27;20423;-71
2022/12/15 10:05:36;;;;;;;18.90;9.93;;;;;;;;;;5133565;27;20427;-70
2022/12/15 10:08:02;;;;;;;15.13;9.93;;;;;;;;;;5140973;27;20414;-70
2022/12/15 10:10:46;;;;;;;19.98;10.52;;;;;;;;;;5131953;27;20402;-70
2022/12/15 10:13:36;;;;;;;19.40;10.35;;;1.60;99.90;;;;;;5126993;27;20426;-70
2022/12/15 10:16:04;;;;;;;15.52;10.15;;;;;;;;;;5141310;27;20426;-70
2022/12/15 10:18:54;;;;;;;17.63;10.27;;;1.70;99.90;;;;;;5145065;27;20728;-70
2022/12/15 10:21:21;;;;;;;20.15;11.10;;;;;;;;;;5151424;27;20417;-71
2022/12/15 10:23:48;;;;;;;17.80;10.10;;;;;;;;;;5151487;27;20456;-70
2022/12/15 10:26:22;;;;;;;17.48;10.32;;;;;;;;;;5124817;27;20768;-71
2022/12/15 10:28:51;;;;;;;16.15;10.15;;;;;;;;;;5125703;27;20762;-71
2022/12/15 10:31:47;;;;;;;20.92;11.25;;;;;;;;;;5113737;27;20490;-71
2022/12/15 10:34:27;;;;;;;18.48;10.55;;;;;;;;;;5097335;27;20862;-71
2022/12/15 10:36:54;;;;;;;19.30;10.27;;;;;;;;;;5130640;27;20451;-71
2022/12/15 10:39:20;;;;;;;18.83;10.60;;;;;;;;;;5129539;27;20421;-70
2022/12/15 10:42:06;;;;;;;17.88;10.00;;;;;;;;;;5131165;27;20390;-72
2022/12/15 10:44:36;;;;;;;16.60;9.63;;;;;;;;;;5129728;27;20426;-72
2022/12/15 10:47:24;;;;;;;14.30;8.90;;;;;;;;;;5105978;27;20402;-71
2022/12/15 10:49:50;;;;;;;15.10;9.13;;;;;;;;;;5117503;27;20425;-71
2022/12/15 10:52:26;;;;;;;16.92;10.38;;;;;;;;;;5116214;27;20739;-72
2022/12/15 10:54:53;;;;;;;13.63;8.93;;;;;;;;;;5099087;27;20774;-71
2022/12/15 10:57:26;;;;;;;14.73;8.55;;;;;;;;;;5114645;27;20411;-71
2022/12/15 10:59:53;;;;;;;15.10;8.30;;;;;;;;;;5117902;27;20417;-71
2022/12/15 11:02:28;;;;;;;15.35;9.75;;;;;;;;;;5117307;27;20395;-71
2022/12/15 11:04:58;;;;;;;14.32;8.02;;;;;;;;;;5115575;27;21016;-71
2022/12/15 11:07:41;;;;;;;14.07;8.00;;;;;;;;;;5096890;28;20794;-72
2022/12/15 11:10:14;;;;;;;13.23;7.87;;;;;;;;;;5096179;28;20424;-71
2022/12/15 11:12:52;;;;;;;16.67;9.38;;;;;;;;;;5095490;28;20420;-71
2022/12/15 11:15:21;;;;;;;13.00;8.45;;;;;;;;;;5097720;27;20421;-71
2022/12/15 11:17:53;;;;;;;15.65;8.07;;;;;;;;;;5115290;27;20415;-71
2022/12/15 11:20:27;;;;;;;14.53;7.90;;;;;;;;;;5116864;27;20507;-71
2022/12/15 11:22:57;;;;;;;17.00;8.18;;;;;;;;;;5116359;27;20468;-71
2022/12/15 11:25:36;;;;;;;18.05;9.60;;;;;;;;;;5114250;27;20428;-70
2022/12/15 11:28:05;;;;;;;13.13;7.85;;;;;;;;;;5105312;27;20422;-70
2022/12/15 11:30:38;;;;;;;15.93;7.85;;;;;;;;;;5097654;27;20417;-71
2022/12/15 11:33:04;;;;;;;14.73;7.85;;;;;;;;;;5097390;28;20424;-70
2022/12/15 11:35:49;;;;;;;13.38;7.35;;;;;;;;;;5097467;27;20424;-70
2022/12/15 11:38:24;;;;;;;13.07;7.60;;;;;;;;;;5099654;27;20482;-71
2022/12/15 11:40:50;;;;;;;14.57;8.20;;;;;;;;;;5115943;27;20483;-71
2022/12/15 11:43:35;;;;;;;13.77;6.97;;;;;;;;;;5098190;28;20415;-71
2022/12/15 11:46:04;;;;;;;14.70;7.63;;;;;;;;;;5095208;28;20416;-71
2022/12/15 11:48:53;;;;;;;13.35;7.15;;;;;;;;;;5096135;28;20489;-71
2022/12/15 11:51:34;;;;;;;13.35;7.35;;;;;;;;;;5097092;27;20400;-72
2022/12/15 11:54:00;;;;;;;11.70;6.72;;;;;;;;;;5108797;27;20418;-70
2022/12/15 11:56:30;;;;;;;14.20;7.28;;;;;;;;;;5089554;27;20418;-71
2022/12/15 11:58:59;;;;;;;13.80;7.05;;;;;;;;;;5111274;27;20758;-73
2022/12/15 12:01:38;;;;;;;13.20;7.28;;;;;;;;;;5091341;27;20418;-72
2022/12/15 12:04:14;;;;;;;14.07;7.25;;;;;;;;;;5106165;27;20554;-74
2022/12/15 12:06:51;;;;;;;11.00;5.93;;;;;;;;;;5112884;27;20976;-73
2022/12/15 12:09:35;;;;;;;11.07;6.20;;;;;;;;;;5109151;27;20413;-72
2022/12/15 12:12:29;;;;;;;11.82;6.38;;;4.40;99.90;;;;;;5100179;27;20430;-73
2022/12/15 12:15:02;;;;;;;12.50;6.55;;;;;;;;;;5097088;28;20427;-73
2022/12/15 12:17:48;;;;;;;11.25;6.05;;;;;;;;;;5102876;27;20414;-73
2022/12/15 12:20:20;;;;;;;14.15;6.25;;;;;;;;;;5095848;27;20415;-72
2022/12/15 12:22:50;;;;;;;13.00;6.90;;;;;;;;;;5107789;27;20751;-73
2022/12/15 12:25:20;;;;;;;12.00;6.10;;;;;;;;;;5107421;28;20451;-72
2022/12/15 12:27:57;;;;;;;11.50;6.90;;;;;;;;;;5113983;27;20500;-72
2022/12/15 12:30:27;;;;;;;12.35;6.55;;;;;;;;;;5096022;28;20736;-73
2022/12/15 12:32:53;;;;;;;13.45;6.95;;;;;;;;;;5103398;27;20511;-73
2022/12/15 12:35:45;;;;;;;16.23;7.20;;;;;;;;;;5084742;28;20473;-73
2022/12/15 12:38:12;;;;;;;12.25;7.00;;;;;;;;;;5097799;27;20446;-73
2022/12/15 12:40:45;;;;;;;17.20;7.32;;;;;;;;;;5109687;27;20414;-73
2022/12/15 12:43:14;;;;;;;15.37;7.10;;;;;;;;;;5103105;27;20443;-73
2022/12/15 12:45:50;;;;;;;14.20;6.80;;;;;;;;;;5086414;27;20425;-73
2022/12/15 12:48:22;;;;;;;15.07;6.93;;;;;;;;;;5099986;28;20464;-73
2022/12/15 12:50:49;;;;;;;15.35;7.00;;;;;;;;;;5094486;28;20492;-73
2022/12/15 12:53:30;;;;;;;14.57;6.82;;;;;;;;;;5077094;28;20416;-73
2022/12/15 12:55:56;;;;;;;13.65;6.65;;;;;;;;;;5112481;27;20446;-73
2022/12/15 12:58:33;;;;;;;13.67;6.33;;;;;;;;;;5116266;27;20397;-73
2022/12/15 13:01:04;;;;;;;12.73;6.03;;;;;;;;;;5114765;27;20886;-73
2022/12/15 13:03:30;;;;;;;13.43;6.38;;;;;;;;;;5096873;27;20421;-73
2022/12/15 13:05:56;;;;;;;14.60;6.78;;;;;;;;;;5102592;28;20428;-74
2022/12/15 13:08:27;;;;;;;12.40;6.40;;;;;;;;;;5104238;28;20843;-73
2022/12/15 13:10:57;;;;;;;11.00;5.90;;;;;;;;;;5093616;28;20484;-74
2022/12/15 13:13:31;;;;;;;13.13;5.93;;;;;;;;;;5111062;27;20419;-74
2022/12/15 13:16:00;;;;;;;11.37;5.83;;;;;;;;;;5114618;27;20415;-74
2022/12/15 13:18:26;;;;;;;12.40;5.60;;;;;;;;;;5113888;27;20418;-74
2022/12/15 13:20:57;;;;;;;10.35;5.72;;;;;;;;;;5097933;27;20395;-73
2022/12/15 13:23:23;;;;;;;14.15;6.13;;;;;;;;;;5080793;28;20427;-73
2022/12/15 13:25:52;;;;;;;12.63;5.82;;;;;;;;;;5096229;28;20412;-74
2022/12/15 13:28:25;;;;;;;14.52;6.15;;;;;;;;;;5094321;28;20468;-73
2022/12/15 13:31:10;;;;;;;10.27;6.05;;;;;;;;;;5094077;28;20428;-73
2022/12/15 13:33:44;;;;;;;13.77;6.30;;;;;;;;;;5110746;28;20555;-73
2022/12/15 13:36:10;;;;;;;13.60;6.35;;;;;;;;;;5096902;28;20505;-73
2022/12/15 13:38:53;;;;;;;13.65;6.43;;;;;;;;;;5111967;28;20419;-73
2022/12/15 13:41:23;;;;;;;13.57;6.40;;;;;;;;;;5114512;28;20474;-73
2022/12/15 13:43:50;;;;;;;10.85;5.82;;;;;;;;;;5097416;28;20428;-73
2022/12/15 13:46:22;;;;;;;13.60;6.03;;;;;;;;;;5093806;28;20908;-73
2022/12/15 13:48:52;;;;;;;12.40;6.30;;;;;;;;;;5093810;28;20400;-73
2022/12/15 13:51:34;;;;;;;17.10;7.72;;;;;;;;;;5093536;28;20404;-72
2022/12/15 13:54:00;;;;;;;14.83;6.87;;;;;;;;;;5112654;28;20414;-72
2022/12/15 13:56:36;;;;;;;13.57;7.55;;;;;;;;;;5113755;28;20418;-72
2022/12/15 13:59:05;;;;;;;21.63;7.70;;;;;;;;;;5096878;28;20438;-72
2022/12/15 14:01:31;;;;;;;15.57;7.50;;;;;;;;;;5101521;28;20416;-72
2022/12/15 14:03:58;;;;;;;17.03;8.30;;;;;;;;;;5112689;28;20548;-72
2022/12/15 14:06:25;;;;;;;16.30;7.80;;;;;;;;;;5100232;28;20454;-72
2022/12/15 14:08:51;;;;;;;14.63;8.07;;;;;;;;;;5093952;28;20400;-72
2022/12/15 14:11:22;;;;;;;17.15;8.35;;;;;;;;;;5110990;28;20497;-72
2022/12/15 14:13:48;;;;;;;15.10;7.95;;;;;;;;;;5096232;28;20414;-72
2022/12/15 14:16:17;;;;;;;14.13;7.70;;;;;;;;;;5112882;28;20781;-72
2022/12/15 14:18:43;;;;;;;14.30;7.55;;;;;;;;;;5112787;28;20419;-72
2022/12/15 14:21:23;;;;;;;14.23;7.63;;;;;;;;;;5112976;28;20438;-72
2022/12/15 14:23:49;;;;;;;16.10;7.43;;;;;;;;;;5103287;27;20415;-72
2022/12/15 14:26:16;;;;;;;15.77;7.72;;;;;;;;;;5077994;27;20494;-72
2022/12/15 14:28:46;;;;;;;15.00;7.35;;;;;;;;;;5102807;27;20415;-72
2022/12/15 14:31:17;;;;;;;12.97;7.17;;;;;;;;;;5088293;27;20420;-72
2022/12/15 14:33:44;;;;;;;15.45;7.05;;;;;;;;;;5088342;27;20755;-72
2022/12/15 14:36:15;;;;;;;16.02;7.70;;;;;;;;;;5113816;27;20423;-71
2022/12/15 14:38:44;;;;;;;12.90;7.00;;;;;;;;;;5113078;27;20416;-72
2022/12/15 14:41:17;;;;;;;14.82;7.57;;;;;;;;;;5097878;27;20418;-72
2022/12/15 14:43:43;;;;;;;14.02;6.88;;;;;;;;;;5109292;28;20420;-72
2022/12/15 14:46:16;;;;;;;13.63;7.18;;;;;;;;;;5083397;28;20408;-72
2022/12/15 14:48:56;;;;;;;12.82;6.70;;;;;;;;;;5079759;27;20486;-72
2022/12/15 14:51:23;;;;;;;15.82;7.28;;;;;;;;;;5112733;27;21075;-72
2022/12/15 14:53:50;;;;;;;12.48;6.97;;;;;;;;;;5103893;27;20422;-72
2022/12/15 14:56:19;;;;;;;13.85;7.10;;;;;;;;;;5110851;27;20502;-71
2022/12/15 14:58:47;;;;;;;14.77;7.18;;;;;;;;;;5101340;28;20444;-72
2022/12/15 15:01:32;;;;;;;11.73;6.90;;;;;;;;;;5085983;28;20489;-72
2022/12/15 15:04:02;;;;;;;14.48;7.38;;;;;;;;;;5097999;28;20420;-72
2022/12/15 15:06:34;;;;;;;15.43;8.02;;;;;;;;;;5111000;27;20847;-72
2022/12/15 15:09:11;;;;;;;19.13;8.60;;;;;;;;;;5098795;28;20502;-72
2022/12/15 15:11:39;;;;;;;18.00;8.65;;;;;;;;;;5083434;27;20462;-73
2022/12/15 15:14:11;;;;;;;16.52;9.32;;;;;;;;;;5114137;27;20414;-72
2022/12/15 15:16:37;;;;;;;14.52;8.95;;;;;;;;;;5112488;27;20429;-72
2022/12/15 15:19:04;;;;;;;17.80;9.70;;;;;;;;;;5084888;27;21242;-73
2022/12/15 15:21:36;;;;;;;22.55;10.98;;;;;;;;;;5096334;28;20523;-74
2022/12/15 15:24:03;;;;;;;21.85;10.77;;;;;;;;;;5101738;28;20458;-73
2022/12/15 15:26:30;;;;;;;23.20;11.45;;;;;;;;;;5106238;27;20433;-73
2022/12/15 15:28:56;;;;;;;17.30;9.90;;;;;;;;;;5110953;27;21187;-73
2022/12/15 15:31:28;;;;;;;21.58;11.35;;;;;;;;;;5106373;28;20561;-73
2022/12/15 15:33:56;;;;;;;18.13;10.87;;;;;;;;;;5109888;27;20501;-73
2022/12/15 15:36:23;;;;;;;20.13;11.50;;;;;;;;;;5109881;27;20428;-73
2022/12/15 15:38:50;;;;;;;23.20;12.73;;;;;;;;;;5098573;27;20411;-73
2022/12/15 15:41:18;;;;;;;21.00;12.23;;;;;;;;;;5091802;27;20490;-73
2022/12/15 15:43:44;;;;;;;22.75;12.73;;;;;;;;;;5090250;27;21099;-73
2022/12/15 15:46:15;;;;;;;21.50;11.82;;;;;;;;;;5090897;27;20414;-72
2022/12/15 15:48:43;;;;;;;19.92;12.35;;;;;;;;;;5080614;27;20471;-73
2022/12/15 15:51:09;;;;;;;22.83;13.07;;;;;;;;;;5069701;28;20416;-72
2022/12/15 15:53:37;;;;;;;22.50;13.60;;;;;;;;;;5073787;28;20448;-72
2022/12/15 15:56:07;;;;;;;24.03;14.20;;;;;;;;;;5089354;27;20900;-71
2022/12/15 15:58:34;;;;;;;22.92;13.70;;;;;;;;;;5072344;28;20416;-72
2022/12/15 16:01:00;;;;;;;23.02;13.27;;;;;;;;;;5094950;27;20725;-72
2022/12/15 16:03:26;;;;;;;22.10;13.10;;;;;;;;;;5078020;27;20414;-72
2022/12/15 16:05:53;;;;;;;21.80;13.30;;;;;;;;;;5088716;28;20775;-72
2022/12/15 16:08:26;;;;;;;22.85;13.55;;;;;;;;;;5095475;27;20477;-71
2022/12/15 16:10:53;;;;;;;22.10;14.27;;;;;;;;;;5072847;28;20911;-71
2022/12/15 16:13:20;;;;;;;23.08;15.60;;;;;;;;;;5094962;27;20467;-71
2022/12/15 16:15:46;;;;;;;25.33;14.07;;;;;;;;;;5112915;27;20510;-71
2022/12/15 16:18:13;;;;;;;23.27;14.33;;;;;;;;;;5086025;27;20488;-71
2022/12/15 16:20:39;;;;;;;22.45;14.18;;;;;;;;;;5098369;27;20423;-71
2022/12/15 16:23:11;;;;;;;23.70;14.40;;;;;;;;;;5089266;27;20442;-71
2022/12/15 16:25:39;;;;;;;21.17;14.38;;;;;;;;;;5075861;27;20419;-71
2022/12/15 16:28:16;;;;;;;27.17;15.68;;;;;;;;;;5095045;28;20440;-71
2022/12/15 16:30:42;;;;;;;25.48;15.50;;;;;;;;;;5097664;27;20929;-72
2022/12/15 16:33:08;;;;;;;26.80;16.05;;;;;;;;;;5074054;27;20952;-71
2022/12/15 16:35:35;;;;;;;28.00;15.57;;;;;;;;;;5074394;27;20803;-71
2022/12/15 16:38:34;;;;;;;25.25;15.27;;;;;;;;;;5091073;27;20420;-69
2022/12/15 16:41:04;;;;;;;25.40;15.90;;;;;;;;;;5049312;27;20492;-70
2022/12/15 16:43:31;;;;;;;25.80;15.82;;;;;;;;;;5087362;27;20448;-71
2022/12/15 16:45:57;;;;;;;25.08;15.90;;;;;;;;;;5092405;28;20423;-71
2022/12/15 16:48:24;;;;;;;27.88;16.60;;;;;;;;;;5089725;27;20454;-70
2022/12/15 16:50:51;;;;;;;27.07;16.63;;;;;;;;;;5106015;27;20426;-71